sensor_id;sensor_type;location;lat;lon;timestamp;pressure;altitude;pressure_sealevel;temperature;humidity
16355;BME280;8287;51.644;8.494;2022-07-01T00:02:09;100217.03;;;18.56;84.48
16355;BME280;8287;51.644;8.494;2022-07-01T00:04:37;100208.34;;;18.62;84.47
16355;BME280;8287;51.644;8.494;2022-07-01T00:07:03;100215.22;;;18.60;84.81
16355;BME280;8287;51.644;8.494;2022-07-01T00:09:30;100205.09;;;18.50;85.42
16355;BME280;8287;51.644;8.494;2022-07-01T00:11:57;100212.41;;;18.53;85.47
16355;BME280;8287;51.644;8.494;2022-07-01T00:14:23;100212.69;;;18.48;85.11
16355;BME280;8287;51.644;8.494;2022-07-01T00:16:50;100221.59;;;18.52;85.18
16355;BME280;8287;51.644;8.494;2022-07-01T00:19:17;100228.56;;;18.56;84.75
16355;BME280;8287;51.644;8.494;2022-07-01T00:21:45;100223.03;;;18.46;84.75
16355;BME280;8287;51.644;8.494;2022-07-01T00:24:12;100223.78;;;18.24;84.51
16355;BME280;8287;51.644;8.494;2022-07-01T00:26:39;100225.31;;;18.25;84.78
16355;BME280;8287;51.644;8.494;2022-07-01T00:29:05;100224.59;;;18.05;84.97
16355;BME280;8287;51.644;8.494;2022-07-01T00:31:32;100224.38;;;17.95;85.54
16355;BME280;8287;51.644;8.494;2022-07-01T00:33:58;100218.75;;;17.81;85.15
16355;BME280;8287;51.644;8.494;2022-07-01T00:36:25;100219.19;;;17.83;85.60
16355;BME280;8287;51.644;8.494;2022-07-01T00:38:53;100232.31;;;17.69;85.91
16355;BME280;8287;51.644;8.494;2022-07-01T00:41:20;100235.00;;;17.69;85.77
16355;BME280;8287;51.644;8.494;2022-07-01T00:43:47;100259.09;;;17.69;85.46
16355;BME280;8287;51.644;8.494;2022-07-01T00:46:14;100259.59;;;17.74;85.57
16355;BME280;8287;51.644;8.494;2022-07-01T00:48:40;100264.53;;;17.72;85.30
16355;BME280;8287;51.644;8.494;2022-07-01T00:51:08;100263.63;;;17.84;85.00
16355;BME280;8287;51.644;8.494;2022-07-01T00:53:35;100266.22;;;17.80;85.13
16355;BME280;8287;51.644;8.494;2022-07-01T00:56:03;100274.28;;;17.80;84.79
16355;BME280;8287;51.644;8.494;2022-07-01T00:58:30;100266.78;;;17.89;84.61
16355;BME280;8287;51.644;8.494;2022-07-01T01:00:58;100269.13;;;17.91;84.01
16355;BME280;8287;51.644;8.494;2022-07-01T01:03:25;100256.41;;;17.88;84.12
16355;BME280;8287;51.644;8.494;2022-07-01T01:05:52;100259.09;;;17.88;83.56
16355;BME280;8287;51.644;8.494;2022-07-01T01:08:20;100265.25;;;17.88;83.61
16355;BME280;8287;51.644;8.494;2022-07-01T01:10:47;100263.69;;;17.87;83.33
16355;BME280;8287;51.644;8.494;2022-07-01T01:13:15;100270.31;;;17.74;84.16
16355;BME280;8287;51.644;8.494;2022-07-01T01:15:42;100266.22;;;17.80;83.55
16355;BME280;8287;51.644;8.494;2022-07-01T01:18:10;100267.44;;;17.83;83.39
16355;BME280;8287;51.644;8.494;2022-07-01T01:20:38;100275.09;;;17.84;83.16
16355;BME280;8287;51.644;8.494;2022-07-01T01:23:05;100278.00;;;17.95;83.13
16355;BME280;8287;51.644;8.494;2022-07-01T01:25:31;100273.13;;;18.00;82.16
16355;BME280;8287;51.644;8.494;2022-07-01T01:27:58;100272.22;;;17.93;82.52
16355;BME280;8287;51.644;8.494;2022-07-01T01:30:25;100280.69;;;17.95;82.26
16355;BME280;8287;51.644;8.494;2022-07-01T01:32:52;100279.78;;;17.87;82.29
16355;BME280;8287;51.644;8.494;2022-07-01T01:35:19;100273.84;;;17.97;82.16
16355;BME280;8287;51.644;8.494;2022-07-01T01:37:47;100275.19;;;17.88;82.66
16355;BME280;8287;51.644;8.494;2022-07-01T01:40:15;100268.34;;;17.90;82.45
16355;BME280;8287;51.644;8.494;2022-07-01T01:42:41;100264.47;;;17.88;82.46
16355;BME280;8287;51.644;8.494;2022-07-01T01:45:09;100265.03;;;17.78;82.64
16355;BME280;8287;51.644;8.494;2022-07-01T01:47:36;100267.94;;;17.88;82.03
16355;BME280;8287;51.644;8.494;2022-07-01T01:50:03;100265.44;;;17.80;82.83
16355;BME280;8287;51.644;8.494;2022-07-01T01:52:30;100270.13;;;17.83;82.58
16355;BME280;8287;51.644;8.494;2022-07-01T01:54:58;100277.59;;;17.93;81.74
16355;BME280;8287;51.644;8.494;2022-07-01T01:57:25;100268.75;;;17.92;82.16
16355;BME280;8287;51.644;8.494;2022-07-01T01:59:52;100275.31;;;17.95;82.43
16355;BME280;8287;51.644;8.494;2022-07-01T02:02:18;100282.88;;;17.89;82.31
16355;BME280;8287;51.644;8.494;2022-07-01T02:04:45;100292.63;;;17.97;82.23
16355;BME280;8287;51.644;8.494;2022-07-01T02:07:11;100285.41;;;18.01;82.01
16355;BME280;8287;51.644;8.494;2022-07-01T02:09:38;100280.28;;;17.93;81.92
16355;BME280;8287;51.644;8.494;2022-07-01T02:12:07;100272.22;;;17.93;82.42
16355;BME280;8287;51.644;8.494;2022-07-01T02:14:34;100274.56;;;17.94;82.64
16355;BME280;8287;51.644;8.494;2022-07-01T02:17:00;100269.97;;;17.95;82.45
16355;BME280;8287;51.644;8.494;2022-07-01T02:19:27;100277.81;;;18.03;82.14
16355;BME280;8287;51.644;8.494;2022-07-01T02:21:53;100278.06;;;17.98;82.06
16355;BME280;8287;51.644;8.494;2022-07-01T02:24:20;100284.56;;;17.97;82.22
16355;BME280;8287;51.644;8.494;2022-07-01T02:26:47;100297.06;;;18.09;82.08
16355;BME280;8287;51.644;8.494;2022-07-01T02:29:15;100303.25;;;18.13;81.56
16355;BME280;8287;51.644;8.494;2022-07-01T02:31:41;100295.28;;;18.16;81.34
16355;BME280;8287;51.644;8.494;2022-07-01T02:34:08;100302.91;;;18.14;82.10
16355;BME280;8287;51.644;8.494;2022-07-01T02:36:35;100314.84;;;18.17;81.22
16355;BME280;8287;51.644;8.494;2022-07-01T02:39:02;100340.22;;;18.23;81.24
16355;BME280;8287;51.644;8.494;2022-07-01T02:41:29;100343.28;;;18.21;81.24
16355;BME280;8287;51.644;8.494;2022-07-01T02:43:55;100347.84;;;18.21;81.25
16355;BME280;8287;51.644;8.494;2022-07-01T02:46:23;100357.34;;;18.15;81.92
16355;BME280;8287;51.644;8.494;2022-07-01T02:48:50;100362.41;;;18.20;81.37
16355;BME280;8287;51.644;8.494;2022-07-01T02:51:16;100366.56;;;18.17;81.70
16355;BME280;8287;51.644;8.494;2022-07-01T02:53:43;100372.38;;;18.19;80.29
16355;BME280;8287;51.644;8.494;2022-07-01T02:56:10;100368.91;;;18.19;80.26
16355;BME280;8287;51.644;8.494;2022-07-01T02:58:36;100369.25;;;18.17;80.80
16355;BME280;8287;51.644;8.494;2022-07-01T03:01:03;100378.06;;;18.18;80.23
16355;BME280;8287;51.644;8.494;2022-07-01T03:03:31;100372.97;;;18.13;81.09
16355;BME280;8287;51.644;8.494;2022-07-01T03:05:58;100377.50;;;18.09;80.75
16355;BME280;8287;51.644;8.494;2022-07-01T03:08:25;100372.84;;;18.06;80.84
16355;BME280;8287;51.644;8.494;2022-07-01T03:10:51;100369.03;;;18.07;80.21
16355;BME280;8287;51.644;8.494;2022-07-01T03:13:18;100379.47;;;18.12;80.31
16355;BME280;8287;51.644;8.494;2022-07-01T03:15:45;100377.50;;;18.09;81.08
16355;BME280;8287;51.644;8.494;2022-07-01T03:18:11;100372.91;;;18.09;81.06
16355;BME280;8287;51.644;8.494;2022-07-01T03:20:40;100373.34;;;18.11;80.67
16355;BME280;8287;51.644;8.494;2022-07-01T03:23:06;100376.78;;;18.12;80.78
16355;BME280;8287;51.644;8.494;2022-07-01T03:25:33;100373.28;;;18.08;81.36
16355;BME280;8287;51.644;8.494;2022-07-01T03:28:01;100381.75;;;18.10;81.15
16355;BME280;8287;51.644;8.494;2022-07-01T03:30:29;100383.72;;;18.13;82.54
16355;BME280;8287;51.644;8.494;2022-07-01T03:32:56;100374.41;;;18.07;82.66
16355;BME280;8287;51.644;8.494;2022-07-01T03:35:22;100383.28;;;18.11;82.34
16355;BME280;8287;51.644;8.494;2022-07-01T03:38:07;100371.44;;;18.12;81.74
16355;BME280;8287;51.644;8.494;2022-07-01T03:40:34;100379.97;;;18.17;81.23
16355;BME280;8287;51.644;8.494;2022-07-01T03:43:01;100393.75;;;18.16;81.22
16355;BME280;8287;51.644;8.494;2022-07-01T03:45:28;100391.06;;;18.16;81.13
16355;BME280;8287;51.644;8.494;2022-07-01T03:47:54;100392.88;;;18.12;82.11
16355;BME280;8287;51.644;8.494;2022-07-01T03:50:22;100398.31;;;18.15;81.30
16355;BME280;8287;51.644;8.494;2022-07-01T03:52:50;100397.56;;;18.15;81.66
16355;BME280;8287;51.644;8.494;2022-07-01T03:55:39;100396.84;;;18.18;80.77
16355;BME280;8287;51.644;8.494;2022-07-01T03:58:05;100403.69;;;18.15;80.51
16355;BME280;8287;51.644;8.494;2022-07-01T04:00:33;100397.97;;;17.98;80.93
16355;BME280;8287;51.644;8.494;2022-07-01T04:03:00;100412.69;;;17.88;80.93
16355;BME280;8287;51.644;8.494;2022-07-01T04:05:27;100404.44;;;17.97;80.49
16355;BME280;8287;51.644;8.494;2022-07-01T04:07:54;100398.88;;;17.86;80.63
16355;BME280;8287;51.644;8.494;2022-07-01T04:10:20;100395.59;;;17.77;81.37
16355;BME280;8287;51.644;8.494;2022-07-01T04:12:49;100407.97;;;17.82;81.27
16355;BME280;8287;51.644;8.494;2022-07-01T04:15:15;100401.38;;;17.79;81.44
16355;BME280;8287;51.644;8.494;2022-07-01T04:17:43;100398.97;;;17.74;81.60
16355;BME280;8287;51.644;8.494;2022-07-01T04:20:10;100394.41;;;17.75;81.63
16355;BME280;8287;51.644;8.494;2022-07-01T04:22:37;100378.06;;;17.64;82.21
16355;BME280;8287;51.644;8.494;2022-07-01T04:25:03;100371.31;;;17.70;82.46
16355;BME280;8287;51.644;8.494;2022-07-01T04:27:30;100364.34;;;17.66;82.24
16355;BME280;8287;51.644;8.494;2022-07-01T04:29:59;100371.09;;;17.60;82.64
16355;BME280;8287;51.644;8.494;2022-07-01T04:32:27;100384.47;;;17.60;83.40
16355;BME280;8287;51.644;8.494;2022-07-01T04:34:54;100381.53;;;17.65;82.62
16355;BME280;8287;51.644;8.494;2022-07-01T04:37:20;100373.50;;;17.65;82.84
16355;BME280;8287;51.644;8.494;2022-07-01T04:39:47;100383.69;;;17.75;82.27
16355;BME280;8287;51.644;8.494;2022-07-01T04:42:14;100383.25;;;17.73;83.09
16355;BME280;8287;51.644;8.494;2022-07-01T04:44:40;100392.84;;;17.74;82.77
16355;BME280;8287;51.644;8.494;2022-07-01T04:47:08;100399.69;;;17.71;82.46
16355;BME280;8287;51.644;8.494;2022-07-01T04:49:35;100403.41;;;17.67;82.73
16355;BME280;8287;51.644;8.494;2022-07-01T04:52:02;100409.97;;;17.54;83.21
16355;BME280;8287;51.644;8.494;2022-07-01T04:54:29;100418.59;;;17.63;82.96
16355;BME280;8287;51.644;8.494;2022-07-01T04:56:55;100428.72;;;17.69;83.16
16355;BME280;8287;51.644;8.494;2022-07-01T04:59:22;100429.06;;;17.68;82.95
16355;BME280;8287;51.644;8.494;2022-07-01T05:01:49;100420.59;;;17.66;82.56
16355;BME280;8287;51.644;8.494;2022-07-01T05:04:18;100418.78;;;17.70;82.10
16355;BME280;8287;51.644;8.494;2022-07-01T05:06:45;100416.53;;;17.72;82.28
16355;BME280;8287;51.644;8.494;2022-07-01T05:09:12;100410.72;;;17.70;81.56
16355;BME280;8287;51.644;8.494;2022-07-01T05:11:39;100424.22;;;17.73;81.60
16355;BME280;8287;51.644;8.494;2022-07-01T05:14:06;100427.59;;;17.70;81.28
16355;BME280;8287;51.644;8.494;2022-07-01T05:16:33;100429.94;;;17.56;81.91
16355;BME280;8287;51.644;8.494;2022-07-01T05:19:00;100431.50;;;17.57;81.74
16355;BME280;8287;51.644;8.494;2022-07-01T05:21:45;100426.31;;;17.64;81.82
16355;BME280;8287;51.644;8.494;2022-07-01T05:24:29;100431.03;;;17.71;81.65
16355;BME280;8287;51.644;8.494;2022-07-01T05:26:57;100429.00;;;17.64;81.33
16355;BME280;8287;51.644;8.494;2022-07-01T05:29:24;100436.84;;;17.57;80.96
16355;BME280;8287;51.644;8.494;2022-07-01T05:31:50;100428.47;;;17.59;81.10
16355;BME280;8287;51.644;8.494;2022-07-01T05:34:17;100429.25;;;17.59;81.03
16355;BME280;8287;51.644;8.494;2022-07-01T05:36:43;100427.59;;;17.55;81.37
16355;BME280;8287;51.644;8.494;2022-07-01T05:39:12;100427.09;;;17.49;81.62
16355;BME280;8287;51.644;8.494;2022-07-01T05:41:38;100419.34;;;17.44;81.39
16355;BME280;8287;51.644;8.494;2022-07-01T05:44:05;100413.53;;;17.42;81.68
16355;BME280;8287;51.644;8.494;2022-07-01T05:46:32;100402.47;;;17.44;80.89
16355;BME280;8287;51.644;8.494;2022-07-01T05:48:59;100406.72;;;17.45;80.95
16355;BME280;8287;51.644;8.494;2022-07-01T05:51:25;100412.34;;;17.40;80.69
16355;BME280;8287;51.644;8.494;2022-07-01T05:53:52;100421.16;;;17.40;80.61
16355;BME280;8287;51.644;8.494;2022-07-01T05:56:20;100426.84;;;17.39;81.00
16355;BME280;8287;51.644;8.494;2022-07-01T05:58:47;100431.19;;;17.43;79.89
16355;BME280;8287;51.644;8.494;2022-07-01T06:01:14;100437.56;;;17.39;80.50
16355;BME280;8287;51.644;8.494;2022-07-01T06:03:41;100432.91;;;17.36;80.58
16355;BME280;8287;51.644;8.494;2022-07-01T06:06:08;100432.81;;;17.48;80.31
16355;BME280;8287;51.644;8.494;2022-07-01T06:08:34;100438.44;;;17.43;80.67
16355;BME280;8287;51.644;8.494;2022-07-01T06:11:01;100444.91;;;17.42;79.89
16355;BME280;8287;51.644;8.494;2022-07-01T06:13:30;100445.34;;;17.44;80.44
16355;BME280;8287;51.644;8.494;2022-07-01T06:15:57;100454.31;;;17.51;79.83
16355;BME280;8287;51.644;8.494;2022-07-01T06:18:25;100459.50;;;17.60;79.57
16355;BME280;8287;51.644;8.494;2022-07-01T06:20:51;100471.59;;;17.54;79.66
16355;BME280;8287;51.644;8.494;2022-07-01T06:23:18;100483.19;;;17.58;79.17
16355;BME280;8287;51.644;8.494;2022-07-01T06:25:45;100492.97;;;17.66;79.42
16355;BME280;8287;51.644;8.494;2022-07-01T06:28:12;100495.03;;;17.72;78.70
16355;BME280;8287;51.644;8.494;2022-07-01T06:30:40;100494.84;;;17.81;78.96
16355;BME280;8287;51.644;8.494;2022-07-01T06:33:12;100485.63;;;17.78;78.42
16355;BME280;8287;51.644;8.494;2022-07-01T06:35:39;100489.25;;;17.70;78.41
16355;BME280;8287;51.644;8.494;2022-07-01T06:38:05;100487.25;;;17.83;78.16
16355;BME280;8287;51.644;8.494;2022-07-01T06:40:32;100496.94;;;17.87;78.15
16355;BME280;8287;51.644;8.494;2022-07-01T06:42:59;100486.72;;;17.93;78.46
16355;BME280;8287;51.644;8.494;2022-07-01T06:45:25;100486.88;;;17.84;77.85
16355;BME280;8287;51.644;8.494;2022-07-01T06:47:54;100488.38;;;17.82;78.43
16355;BME280;8287;51.644;8.494;2022-07-01T06:50:20;100496.31;;;17.94;78.39
16355;BME280;8287;51.644;8.494;2022-07-01T06:52:47;100492.06;;;17.93;77.71
16355;BME280;8287;51.644;8.494;2022-07-01T06:55:14;100496.31;;;17.94;76.98
16355;BME280;8287;51.644;8.494;2022-07-01T06:57:40;100494.94;;;17.84;76.92
16355;BME280;8287;51.644;8.494;2022-07-01T07:00:08;100491.81;;;17.82;76.93
16355;BME280;8287;51.644;8.494;2022-07-01T07:02:35;100493.63;;;17.94;76.69
16355;BME280;8287;51.644;8.494;2022-07-01T07:05:03;100492.78;;;17.90;76.29
16355;BME280;8287;51.644;8.494;2022-07-01T07:07:30;100496.56;;;17.89;76.69
16355;BME280;8287;51.644;8.494;2022-07-01T07:09:56;100490.78;;;17.87;76.35
16355;BME280;8287;51.644;8.494;2022-07-01T07:12:23;100492.78;;;17.90;76.76
16355;BME280;8287;51.644;8.494;2022-07-01T07:14:50;100486.28;;;17.91;77.09
16355;BME280;8287;51.644;8.494;2022-07-01T07:17:17;100475.81;;;17.86;77.24
16355;BME280;8287;51.644;8.494;2022-07-01T07:19:43;100475.28;;;17.96;77.26
16355;BME280;8287;51.644;8.494;2022-07-01T07:22:12;100482.34;;;18.04;77.34
16355;BME280;8287;51.644;8.494;2022-07-01T07:24:38;100486.91;;;18.19;76.93
16355;BME280;8287;51.644;8.494;2022-07-01T07:27:05;100496.78;;;18.30;76.23
16355;BME280;8287;51.644;8.494;2022-07-01T07:29:31;100499.25;;;18.39;76.43
16355;BME280;8287;51.644;8.494;2022-07-01T07:31:58;100502.50;;;18.48;76.24
16355;BME280;8287;51.644;8.494;2022-07-01T07:34:25;100510.50;;;18.44;75.84
16355;BME280;8287;51.644;8.494;2022-07-01T07:36:52;100521.66;;;18.46;76.36
16355;BME280;8287;51.644;8.494;2022-07-01T07:39:20;100518.34;;;18.53;75.58
16355;BME280;8287;51.644;8.494;2022-07-01T07:41:47;100524.28;;;18.62;75.14
16355;BME280;8287;51.644;8.494;2022-07-01T07:44:15;100527.31;;;18.60;74.89
16355;BME280;8287;51.644;8.494;2022-07-01T07:46:41;100524.44;;;18.69;74.71
16355;BME280;8287;51.644;8.494;2022-07-01T07:49:08;100521.19;;;18.79;74.19
16355;BME280;8287;51.644;8.494;2022-07-01T07:51:35;100517.66;;;18.75;72.85
16355;BME280;8287;51.644;8.494;2022-07-01T07:54:01;100522.25;;;18.74;73.36
16355;BME280;8287;51.644;8.494;2022-07-01T07:56:30;100517.56;;;18.90;72.71
16355;BME280;8287;51.644;8.494;2022-07-01T07:58:56;100532.25;;;18.77;72.98
16355;BME280;8287;51.644;8.494;2022-07-01T08:01:23;100538.75;;;18.76;73.03
16355;BME280;8287;51.644;8.494;2022-07-01T08:03:50;100551.28;;;18.69;73.72
16355;BME280;8287;51.644;8.494;2022-07-01T08:06:17;100543.50;;;18.64;72.92
16355;BME280;8287;51.644;8.494;2022-07-01T08:08:44;100556.78;;;18.76;73.20
16355;BME280;8287;51.644;8.494;2022-07-01T08:11:11;100560.47;;;18.68;71.53
16355;BME280;8287;51.644;8.494;2022-07-01T08:13:40;100547.38;;;18.66;71.82
16355;BME280;8287;51.644;8.494;2022-07-01T08:16:07;100548.72;;;18.57;72.17
16355;BME280;8287;51.644;8.494;2022-07-01T08:18:34;100538.34;;;18.74;72.58
16355;BME280;8287;51.644;8.494;2022-07-01T08:21:01;100535.53;;;18.86;72.08
16355;BME280;8287;51.644;8.494;2022-07-01T08:23:27;100548.88;;;19.02;71.71
16355;BME280;8287;51.644;8.494;2022-07-01T08:25:54;100562.66;;;19.19;71.56
16355;BME280;8287;51.644;8.494;2022-07-01T08:28:21;100565.97;;;19.13;70.53
16355;BME280;8287;51.644;8.494;2022-07-01T08:30:49;100573.13;;;19.24;70.97
16355;BME280;8287;51.644;8.494;2022-07-01T08:33:15;100577.59;;;19.36;70.35
16355;BME280;8287;51.644;8.494;2022-07-01T08:35:42;100583.50;;;19.45;70.07
16355;BME280;8287;51.644;8.494;2022-07-01T08:38:09;100584.13;;;19.57;69.69
16355;BME280;8287;51.644;8.494;2022-07-01T08:40:35;100582.63;;;19.60;68.09
16355;BME280;8287;51.644;8.494;2022-07-01T08:43:05;100579.28;;;19.66;68.57
16355;BME280;8287;51.644;8.494;2022-07-01T08:45:33;100584.59;;;19.85;68.09
16355;BME280;8287;51.644;8.494;2022-07-01T08:48:03;100586.31;;;19.97;67.42
16355;BME280;8287;51.644;8.494;2022-07-01T08:50:33;100591.66;;;19.93;66.77
16355;BME280;8287;51.644;8.494;2022-07-01T08:55:22;100598.63;;;20.17;66.50
16355;BME280;8287;51.644;8.494;2022-07-01T08:57:49;100598.69;;;20.24;66.72
16355;BME280;8287;51.644;8.494;2022-07-01T09:00:17;100590.44;;;20.36;65.73
16355;BME280;8287;51.644;8.494;2022-07-01T09:02:51;100606.44;;;20.51;66.08
16355;BME280;8287;51.644;8.494;2022-07-01T09:05:18;100613.63;;;20.43;65.38
16355;BME280;8287;51.644;8.494;2022-07-01T09:07:46;100616.44;;;20.28;65.33
16355;BME280;8287;51.644;8.494;2022-07-01T09:10:13;100622.00;;;20.38;66.06
16355;BME280;8287;51.644;8.494;2022-07-01T09:12:47;100619.53;;;20.52;65.29
16355;BME280;8287;51.644;8.494;2022-07-01T09:15:35;100625.13;;;20.66;65.48
16355;BME280;8287;51.644;8.494;2022-07-01T09:18:04;100627.47;;;20.97;65.33
16355;BME280;8287;51.644;8.494;2022-07-01T09:20:33;100628.31;;;21.01;61.99
16355;BME280;8287;51.644;8.494;2022-07-01T09:23:02;100622.50;;;21.29;63.38
16355;BME280;8287;51.644;8.494;2022-07-01T09:25:32;100630.28;;;21.37;60.78
16355;BME280;8287;51.644;8.494;2022-07-01T09:28:05;100628.06;;;21.46;61.00
16355;BME280;8287;51.644;8.494;2022-07-01T09:30:32;100617.94;;;21.36;59.42
16355;BME280;8287;51.644;8.494;2022-07-01T09:33:10;100618.13;;;21.17;58.88
16355;BME280;8287;51.644;8.494;2022-07-01T09:35:38;100616.88;;;21.11;59.42
16355;BME280;8287;51.644;8.494;2022-07-01T09:38:05;100597.84;;;20.97;60.58
16355;BME280;8287;51.644;8.494;2022-07-01T09:40:49;100592.59;;;21.08;60.69
16355;BME280;8287;51.644;8.494;2022-07-01T09:43:23;100583.03;;;21.14;58.88
16355;BME280;8287;51.644;8.494;2022-07-01T09:45:52;100572.66;;;21.16;58.76
16355;BME280;8287;51.644;8.494;2022-07-01T09:48:20;100581.44;;;21.09;60.15
16355;BME280;8287;51.644;8.494;2022-07-01T09:50:47;100570.00;;;21.19;60.88
16355;BME280;8287;51.644;8.494;2022-07-01T09:53:14;100565.47;;;21.27;61.55
16355;BME280;8287;51.644;8.494;2022-07-01T09:55:41;100569.13;;;21.08;61.02
16355;BME280;8287;51.644;8.494;2022-07-01T09:58:08;100568.94;;;20.94;60.82
16355;BME280;8287;51.644;8.494;2022-07-01T10:00:37;100567.81;;;20.95;60.17
16355;BME280;8287;51.644;8.494;2022-07-01T10:03:04;100572.84;;;20.97;61.58
16355;BME280;8287;51.644;8.494;2022-07-01T10:05:37;100563.16;;;20.92;60.76
16355;BME280;8287;51.644;8.494;2022-07-01T10:08:19;100568.22;;;20.97;60.82
16355;BME280;8287;51.644;8.494;2022-07-01T10:10:50;100564.53;;;20.83;60.37
16355;BME280;8287;51.644;8.494;2022-07-01T10:13:23;100573.03;;;20.85;59.72
16355;BME280;8287;51.644;8.494;2022-07-01T10:15:53;100576.69;;;20.96;60.20
16355;BME280;8287;51.644;8.494;2022-07-01T10:18:20;100575.94;;;20.99;60.88
16355;BME280;8287;51.644;8.494;2022-07-01T10:20:48;100574.44;;;21.01;60.84
16355;BME280;8287;51.644;8.494;2022-07-01T10:23:15;100578.09;;;20.86;60.37
16355;BME280;8287;51.644;8.494;2022-07-01T10:25:43;100594.66;;;20.62;61.10
16355;BME280;8287;51.644;8.494;2022-07-01T10:28:16;100590.97;;;20.74;62.47
16355;BME280;8287;51.644;8.494;2022-07-01T10:30:56;100603.88;;;20.61;59.22
16355;BME280;8287;51.644;8.494;2022-07-01T10:33:33;100601.81;;;20.51;59.95
16355;BME280;8287;51.644;8.494;2022-07-01T10:36:08;100599.66;;;20.60;60.32
16355;BME280;8287;51.644;8.494;2022-07-01T10:42:00;100623.88;;;20.60;61.00
16355;BME280;8287;51.644;8.494;2022-07-01T10:44:29;100617.75;;;20.63;60.81
16355;BME280;8287;51.644;8.494;2022-07-01T10:47:04;100620.84;;;20.62;61.14
16355;BME280;8287;51.644;8.494;2022-07-01T10:49:59;100612.59;;;20.51;62.17
16355;BME280;8287;51.644;8.494;2022-07-01T10:52:26;100619.50;;;20.78;62.23
16355;BME280;8287;51.644;8.494;2022-07-01T10:54:55;100620.16;;;20.68;60.88
16355;BME280;8287;51.644;8.494;2022-07-01T10:57:26;100620.72;;;20.81;58.91
16355;BME280;8287;51.644;8.494;2022-07-01T10:59:55;100616.59;;;20.87;59.53
16355;BME280;8287;51.644;8.494;2022-07-01T11:02:25;100629.13;;;21.05;58.12
16355;BME280;8287;51.644;8.494;2022-07-01T11:04:54;100621.03;;;21.05;58.62
16355;BME280;8287;51.644;8.494;2022-07-01T11:07:24;100620.88;;;21.24;58.93
16355;BME280;8287;51.644;8.494;2022-07-01T11:09:52;100616.97;;;21.18;57.93
16355;BME280;8287;51.644;8.494;2022-07-01T11:12:21;100619.50;;;21.37;58.37
16355;BME280;8287;51.644;8.494;2022-07-01T11:14:48;100613.72;;;21.35;57.05
16355;BME280;8287;51.644;8.494;2022-07-01T11:17:16;100611.50;;;21.44;56.88
16355;BME280;8287;51.644;8.494;2022-07-01T11:19:48;100610.03;;;21.50;56.49
16355;BME280;8287;51.644;8.494;2022-07-01T11:22:18;100601.22;;;21.57;56.41
16355;BME280;8287;51.644;8.494;2022-07-01T11:24:45;100589.72;;;21.63;57.15
16355;BME280;8287;51.644;8.494;2022-07-01T11:27:12;100598.16;;;21.62;56.06
16355;BME280;8287;51.644;8.494;2022-07-01T11:29:38;100595.13;;;21.63;56.53
16355;BME280;8287;51.644;8.494;2022-07-01T11:32:05;100600.72;;;21.81;55.96
16355;BME280;8287;51.644;8.494;2022-07-01T11:34:32;100608.50;;;21.89;57.14
16355;BME280;8287;51.644;8.494;2022-07-01T11:37:08;100601.47;;;21.81;55.30
16355;BME280;8287;51.644;8.494;2022-07-01T11:40:03;100595.31;;;21.81;54.79
16355;BME280;8287;51.644;8.494;2022-07-01T11:42:31;100597.72;;;21.93;55.37
16355;BME280;8287;51.644;8.494;2022-07-01T11:44:58;100598.44;;;21.86;55.13
16355;BME280;8287;51.644;8.494;2022-07-01T11:47:26;100609.38;;;22.04;55.30
16355;BME280;8287;51.644;8.494;2022-07-01T11:49:53;100613.31;;;22.13;53.48
16355;BME280;8287;51.644;8.494;2022-07-01T11:52:22;100610.66;;;22.17;54.53
16355;BME280;8287;51.644;8.494;2022-07-01T11:54:50;100597.94;;;22.21;53.96
16355;BME280;8287;51.644;8.494;2022-07-01T11:57:19;100599.56;;;22.32;53.72
16355;BME280;8287;51.644;8.494;2022-07-01T11:59:48;100606.63;;;22.44;53.03
16355;BME280;8287;51.644;8.494;2022-07-01T12:02:16;100611.56;;;22.38;53.11
16355;BME280;8287;51.644;8.494;2022-07-01T12:04:44;100618.94;;;22.41;53.10
16355;BME280;8287;51.644;8.494;2022-07-01T12:07:13;100615.59;;;22.55;53.79
16355;BME280;8287;51.644;8.494;2022-07-01T12:09:41;100611.38;;;22.64;51.46
16355;BME280;8287;51.644;8.494;2022-07-01T12:12:15;100612.50;;;22.60;50.74
16355;BME280;8287;51.644;8.494;2022-07-01T12:14:49;100602.06;;;22.51;51.11
16355;BME280;8287;51.644;8.494;2022-07-01T12:17:16;100593.63;;;22.63;50.09
16355;BME280;8287;51.644;8.494;2022-07-01T12:19:44;100601.44;;;22.82;50.94
16355;BME280;8287;51.644;8.494;2022-07-01T12:22:14;100593.47;;;23.10;51.73
16355;BME280;8287;51.644;8.494;2022-07-01T12:24:45;100589.25;;;23.20;50.65
16355;BME280;8287;51.644;8.494;2022-07-01T12:27:12;100595.47;;;23.34;50.65
16355;BME280;8287;51.644;8.494;2022-07-01T12:29:50;100605.59;;;23.62;47.86
16355;BME280;8287;51.644;8.494;2022-07-01T12:32:19;100590.91;;;23.59;48.27
16355;BME280;8287;51.644;8.494;2022-07-01T12:34:50;100590.94;;;23.77;48.22
16355;BME280;8287;51.644;8.494;2022-07-01T12:37:17;100589.75;;;23.74;47.15
16355;BME280;8287;51.644;8.494;2022-07-01T12:39:48;100595.56;;;23.62;47.54
16355;BME280;8287;51.644;8.494;2022-07-01T12:42:22;100597.06;;;23.49;48.11
16355;BME280;8287;51.644;8.494;2022-07-01T12:44:51;100598.22;;;23.45;47.56
16355;BME280;8287;51.644;8.494;2022-07-01T12:47:20;100594.66;;;23.20;46.99
16355;BME280;8287;51.644;8.494;2022-07-01T12:49:46;100603.06;;;23.01;47.88
16355;BME280;8287;51.644;8.494;2022-07-01T12:52:23;100591.94;;;23.16;48.72
16355;BME280;8287;51.644;8.494;2022-07-01T12:54:52;100603.66;;;23.55;48.46
16355;BME280;8287;51.644;8.494;2022-07-01T12:57:28;100600.94;;;23.48;47.18
16355;BME280;8287;51.644;8.494;2022-07-01T12:59:55;100602.13;;;23.65;46.78
16355;BME280;8287;51.644;8.494;2022-07-01T13:02:22;100594.78;;;23.76;46.61
16355;BME280;8287;51.644;8.494;2022-07-01T13:04:49;100593.28;;;24.17;47.63
16355;BME280;8287;51.644;8.494;2022-07-01T13:07:15;100597.91;;;24.26;45.02
16355;BME280;8287;51.644;8.494;2022-07-01T13:09:42;100594.81;;;24.11;44.97
16355;BME280;8287;51.644;8.494;2022-07-01T13:12:10;100593.28;;;24.20;47.25